createdAt,value
2023-04-28T00:01:13.972Z,2.65
2023-04-28T00:03:42.066Z,2.25
2023-04-28T00:06:12.366Z,3.00
2023-04-28T00:08:40.287Z,2.40
2023-04-28T00:11:10.887Z,2.53
2023-04-28T00:13:38.842Z,2.40
2023-04-28T00:16:07.556Z,2.58
2023-04-28T00:18:35.897Z,2.72
2023-04-28T00:21:03.823Z,2.95
2023-04-28T00:23:33.179Z,2.70
2023-04-28T00:26:01.036Z,2.65
2023-04-28T00:30:59.705Z,2.50
2023-04-28T00:33:27.622Z,2.83
2023-04-28T00:36:00.744Z,2.67
2023-04-28T00:38:28.868Z,2.70
2023-04-28T00:40:58.235Z,2.95
2023-04-28T00:43:26.273Z,2.50
2023-04-28T00:45:54.420Z,2.92
2023-04-28T00:48:23.722Z,2.92
2023-04-28T00:50:52.460Z,2.92
2023-04-28T00:53:20.354Z,2.80
2023-04-28T00:55:48.992Z,2.65
2023-04-28T00:58:18.291Z,2.50
2023-04-28T01:00:46.306Z,2.80
2023-04-28T03:44:45.712Z,3.28
2023-04-28T04:10:06.599Z,3.72
2023-04-28T04:12:34.800Z,3.45
2023-04-28T04:15:02.561Z,3.55
2023-04-28T04:17:30.598Z,3.28
2023-04-28T04:19:58.460Z,3.45
2023-04-28T04:22:26.302Z,3.70
2023-04-28T04:24:54.123Z,3.40
2023-04-28T04:27:25.684Z,3.70
2023-04-28T04:29:53.443Z,3.63
2023-04-28T04:32:21.208Z,3.60
2023-04-28T04:34:49.349Z,3.80
2023-04-28T04:37:25.082Z,3.88
2023-04-28T04:39:52.865Z,3.97
2023-04-28T04:42:29.324Z,4.32
2023-04-28T04:45:03.819Z,4.10
2023-04-28T04:47:34.791Z,3.90
2023-04-28T04:50:08.864Z,3.50
2023-04-28T04:52:41.340Z,4.07
2023-04-28T04:55:11.353Z,3.40
2023-04-28T04:57:44.496Z,4.30
2023-04-28T05:00:19.502Z,3.90
2023-04-28T05:02:50.203Z,4.30
2023-04-28T05:05:21.682Z,3.92
2023-04-28T05:07:52.211Z,3.67
2023-04-28T05:10:24.578Z,4.30
2023-04-28T05:12:55.613Z,3.92
2023-04-28T05:15:23.650Z,4.20
2023-04-28T05:17:54.374Z,4.15
2023-04-28T05:20:26.188Z,4.68
2023-04-28T05:22:54.804Z,4.45
2023-04-28T05:25:24.922Z,4.45
2023-04-28T05:27:54.751Z,4.22
2023-04-28T05:30:26.857Z,4.13
2023-04-28T05:32:57.666Z,4.15
2023-04-28T05:35:26.085Z,4.40
2023-04-28T05:37:55.965Z,4.63
2023-04-28T05:40:27.110Z,4.50
2023-04-28T05:42:56.593Z,4.40
2023-04-28T05:45:32.496Z,4.30
2023-04-28T05:48:01.132Z,4.70
2023-04-28T05:50:29.992Z,4.57
2023-04-28T05:53:08.532Z,4.43
2023-04-28T05:55:40.671Z,5.13
2023-04-28T05:58:10.221Z,4.80
2023-04-28T06:00:43.139Z,4.90
2023-04-28T06:03:13.336Z,4.85
2023-04-28T06:05:47.665Z,5.40
2023-04-28T06:08:15.900Z,5.10
2023-04-28T06:10:43.849Z,4.60
2023-04-28T06:13:14.623Z,4.95
2023-04-28T06:15:47.180Z,5.13
2023-04-28T06:18:16.252Z,4.93
2023-04-28T06:20:44.520Z,4.80
2023-04-28T06:23:12.396Z,4.70
2023-04-28T06:25:44.513Z,4.75
2023-04-28T06:28:14.954Z,4.90
2023-04-28T06:30:43.253Z,5.43
2023-04-28T06:33:11.210Z,4.90
2023-04-28T06:35:40.500Z,5.60
2023-04-28T06:38:08.759Z,5.00
2023-04-28T06:40:36.712Z,5.30
2023-04-28T06:43:05.729Z,5.38
2023-04-28T06:45:35.142Z,6.30
2023-04-28T06:48:10.715Z,5.25
2023-04-28T06:50:42.400Z,5.28
2023-04-28T06:53:11.860Z,5.65
2023-04-28T06:55:41.174Z,5.90
2023-04-28T06:58:11.436Z,6.32
2023-04-28T07:00:43.622Z,5.40
2023-04-28T07:03:12.053Z,5.60
2023-04-28T07:05:40.549Z,5.88
2023-04-28T07:08:11.275Z,5.75
2023-04-28T07:10:42.546Z,5.75
2023-04-28T07:13:16.143Z,5.60
2023-04-28T07:15:59.760Z,5.65
2023-04-28T07:18:30.291Z,5.38
2023-04-28T07:21:05.380Z,5.90
2023-04-28T07:24:03.119Z,5.88
2023-04-28T07:26:53.577Z,5.82
2023-04-28T07:30:14.784Z,5.97
2023-04-28T07:32:50.267Z,5.85
2023-04-28T07:35:21.588Z,5.75
2023-04-28T07:41:44.192Z,6.22
2023-04-28T07:44:38.176Z,5.70
2023-04-28T07:47:23.658Z,6.13
2023-04-28T08:00:52.466Z,5.72
2023-04-28T08:04:01.396Z,5.95
2023-04-28T08:06:47.004Z,5.93
2023-04-28T08:09:41.816Z,5.78
2023-04-28T08:13:01.341Z,5.97
2023-04-28T08:25:36.314Z,5.72
2023-04-28T08:35:10.569Z,5.63
2023-04-28T08:44:40.807Z,5.80
2023-04-28T08:48:00.222Z,5.53
2023-04-28T08:54:28.270Z,5.65
2023-04-28T09:01:22.426Z,6.00
2023-04-28T09:23:29.627Z,5.75
2023-04-28T11:42:55.589Z,6.32
2023-04-28T12:04:14.922Z,6.88
2023-04-28T12:08:16.529Z,6.78
2023-04-28T12:12:03.385Z,5.55
2023-04-28T12:15:44.029Z,5.90
2023-04-28T12:24:17.373Z,6.10
2023-04-28T12:35:12.329Z,5.80
2023-04-28T12:42:05.391Z,6.40
2023-04-28T12:44:54.039Z,5.43
2023-04-28T12:47:43.361Z,4.85
2023-04-28T12:50:36.280Z,5.25
2023-04-28T12:53:18.582Z,5.70
2023-04-28T12:55:46.758Z,5.50
2023-04-28T12:58:25.457Z,6.20
2023-04-28T13:01:20.924Z,5.95
2023-04-28T13:04:16.197Z,6.28
2023-04-28T13:07:08.238Z,5.93
2023-04-28T13:12:22.855Z,6.53
2023-04-28T13:15:38.860Z,7.35
2023-04-28T13:19:11.837Z,6.10
2023-04-28T13:25:05.304Z,6.93
2023-04-28T13:29:04.182Z,7.20
2023-04-28T13:31:57.304Z,6.28
2023-04-28T13:34:26.686Z,7.18
2023-04-28T13:44:20.146Z,7.78
2023-04-28T13:47:55.649Z,7.80
2023-04-28T13:59:15.643Z,7.13
2023-04-28T14:01:33.054Z,6.18
2023-04-28T14:05:24.084Z,6.35
2023-04-28T14:12:24.185Z,6.30
2023-04-28T14:15:09.355Z,7.15
2023-04-28T14:18:00.440Z,6.78
2023-04-28T14:20:39.549Z,6.70
2023-04-28T14:26:06.675Z,6.93
2023-04-28T14:32:26.060Z,5.93
2023-04-28T14:35:38.867Z,7.25
2023-04-28T14:38:12.166Z,6.75
2023-04-28T14:40:56.758Z,7.30
2023-04-28T14:43:52.101Z,6.90
2023-04-28T14:46:55.454Z,7.47
2023-04-28T14:49:48.325Z,7.78
2023-04-28T14:52:39.456Z,7.05
2023-04-28T14:55:33.859Z,6.82
2023-04-28T14:58:29.889Z,6.60
2023-04-28T15:01:22.568Z,7.60
2023-04-28T15:04:27.016Z,6.75
2023-04-28T15:07:07.184Z,7.20
2023-04-28T15:20:38.349Z,7.60
2023-04-28T15:23:26.368Z,7.13
2023-04-28T15:26:15.491Z,7.35
2023-04-28T15:28:54.470Z,7.30
2023-04-28T15:31:42.969Z,6.65
2023-04-28T15:34:21.514Z,7.88
2023-04-28T15:36:53.833Z,7.53
2023-04-28T15:39:28.989Z,7.80
2023-04-28T15:42:05.621Z,7.30
2023-04-28T15:44:38.946Z,7.38
2023-04-28T15:47:36.423Z,7.68
2023-04-28T15:50:43.272Z,7.43
2023-04-28T15:53:25.309Z,7.93
2023-04-28T15:56:00.580Z,8.27
2023-04-28T15:58:28.812Z,7.50
2023-04-28T16:01:00.530Z,7.45
2023-04-28T16:03:28.995Z,8.13
2023-04-28T16:06:03.556Z,8.10
2023-04-28T16:08:33.098Z,8.05
2023-04-28T16:11:19.107Z,7.38
2023-04-28T16:14:19.452Z,7.78
2023-04-28T16:17:07.247Z,7.80
2023-04-28T16:19:39.518Z,7.82
2023-04-28T16:22:11.417Z,7.45
2023-04-28T16:24:43.923Z,7.78
2023-04-28T16:27:17.284Z,8.32
2023-04-28T16:29:50.106Z,9.07
2023-04-28T16:32:22.605Z,8.30
2023-04-28T16:35:51.439Z,8.05
2023-04-28T16:38:24.903Z,8.82
2023-04-28T16:41:15.588Z,8.00
2023-04-28T17:23:55.531Z,9.10
2023-04-28T17:26:49.759Z,8.35
2023-04-28T17:33:51.263Z,9.27
2023-04-28T17:36:20.727Z,9.43
2023-04-28T17:42:56.336Z,10.48
2023-04-28T17:45:30.558Z,9.77
2023-04-28T17:56:37.009Z,11.43
2023-04-28T17:59:23.153Z,10.30
2023-04-28T18:01:59.127Z,10.90
2023-04-28T18:04:34.245Z,10.05
2023-04-28T18:07:24.914Z,10.77
2023-04-28T18:10:24.624Z,11.18
2023-04-28T18:12:54.583Z,11.05
2023-04-28T18:15:29.342Z,11.20
2023-04-28T18:19:06.792Z,9.80
2023-04-28T18:26:07.194Z,10.77
2023-04-28T18:29:07.827Z,10.43
2023-04-28T18:31:37.317Z,9.90
2023-04-28T18:34:06.705Z,9.95
2023-04-28T18:36:39.502Z,10.02
2023-04-28T18:39:08.982Z,10.38
2023-04-28T18:41:39.395Z,9.90
2023-04-28T18:44:08.622Z,9.70
2023-04-28T18:47:00.011Z,9.40
2023-04-28T18:49:28.302Z,9.90
2023-04-28T18:55:59.244Z,10.88
2023-04-28T19:03:17.637Z,10.13
2023-04-28T19:09:16.655Z,10.43
2023-04-28T19:23:32.859Z,10.20
2023-04-28T19:33:04.392Z,9.98
2023-04-28T19:43:34.478Z,10.25
2023-04-28T19:50:07.304Z,10.00
2023-04-28T19:53:23.984Z,10.75
2023-04-28T19:55:53.078Z,10.63
2023-04-28T19:58:52.449Z,11.05
2023-04-28T20:01:48.043Z,11.07
2023-04-28T20:08:29.605Z,10.70
2023-04-28T20:20:03.326Z,11.38
2023-04-28T20:22:32.910Z,10.93
2023-04-28T20:34:09.434Z,11.15
2023-04-28T20:36:42.004Z,10.63
2023-04-28T20:44:27.500Z,10.13
2023-04-28T20:46:47.511Z,10.73
2023-04-28T20:49:18.290Z,9.15
2023-04-28T20:51:46.441Z,10.00
2023-04-28T20:54:15.288Z,10.40
2023-04-28T20:57:12.198Z,10.52
2023-04-28T21:00:09.121Z,9.38
2023-04-28T21:03:25.314Z,10.77
2023-04-28T21:06:01.191Z,10.23
2023-04-28T21:08:30.177Z,9.52
2023-04-28T21:10:58.388Z,9.50
2023-04-28T21:13:26.642Z,9.23
2023-04-28T21:16:01.164Z,9.15
2023-04-28T21:18:34.923Z,9.60
2023-04-28T21:21:03.029Z,8.65
2023-04-28T21:23:30.930Z,8.80
2023-04-28T21:25:59.653Z,7.75
2023-04-28T21:28:28.514Z,7.53
2023-04-28T21:30:59.320Z,7.88
2023-04-28T21:33:27.335Z,7.32
2023-04-28T21:35:57.567Z,7.88
2023-04-28T21:38:26.155Z,6.88
2023-04-28T21:40:54.279Z,7.43
2023-04-28T21:43:22.889Z,7.22
2023-04-28T21:45:52.167Z,7.25
2023-04-28T21:48:20.209Z,7.25
2023-04-28T21:50:48.368Z,7.07
2023-04-28T21:53:17.695Z,7.45
2023-04-28T21:55:47.239Z,6.60
2023-04-28T21:58:16.467Z,7.03
2023-04-28T22:00:46.410Z,6.82
2023-04-28T22:03:15.354Z,6.57
2023-04-28T22:05:44.635Z,6.13
2023-04-28T22:08:13.042Z,6.75
2023-04-28T22:10:44.031Z,6.47
2023-04-28T22:13:12.102Z,6.80
2023-04-28T22:15:40.126Z,6.07
2023-04-28T22:18:08.812Z,6.32
2023-04-28T22:20:36.834Z,5.82
2023-04-28T22:23:04.829Z,5.65
2023-04-28T22:25:37.052Z,6.15
2023-04-28T22:28:09.339Z,5.57
2023-04-28T22:30:39.126Z,6.10
2023-04-28T22:33:21.123Z,5.63
2023-04-28T22:35:49.256Z,6.03
2023-04-28T22:38:17.230Z,5.40
2023-04-28T22:40:45.938Z,5.40
2023-04-28T22:43:15.308Z,5.82
2023-04-28T22:45:45.527Z,5.82
2023-04-28T22:48:14.458Z,5.35
2023-04-28T22:50:44.458Z,5.30
2023-04-28T22:53:12.986Z,5.63
2023-04-28T22:55:43.401Z,5.72
2023-04-28T22:58:12.665Z,5.32
2023-04-28T23:00:42.782Z,5.70
2023-04-28T23:03:10.851Z,5.88
2023-04-28T23:05:39.277Z,5.50
2023-04-28T23:08:08.874Z,5.93
2023-04-28T23:10:36.917Z,5.80
2023-04-28T23:13:04.932Z,6.15
2023-04-28T23:15:33.035Z,6.78
2023-04-28T23:18:02.437Z,7.60
2023-04-28T23:20:30.463Z,8.20
2023-04-28T23:23:01.260Z,7.68
2023-04-28T23:25:29.314Z,7.07
2023-04-28T23:27:57.472Z,6.97
2023-04-28T23:30:28.289Z,6.35
2023-04-28T23:32:56.774Z,5.63
2023-04-28T23:35:29.189Z,6.53
2023-04-28T23:37:57.197Z,6.20
2023-04-28T23:40:25.683Z,6.40
2023-04-28T23:42:53.623Z,5.53
2023-04-28T23:45:21.549Z,5.82
2023-04-28T23:47:49.801Z,5.88
2023-04-28T23:50:18.159Z,5.60
2023-04-28T23:52:47.531Z,5.50
2023-04-28T23:55:15.909Z,5.97
2023-04-28T23:57:43.866Z,5.82
